Time;durP1;ratioP1;P1;durP2;ratioP2;P2;SDS_P1;SDS_P2;PMS_P1;PMS_P2;Temp;Humidity;BMP_temperature;BMP_pressure;BME280_temperature;BME280_humidity;BME280_pressure;Samples;Min_cycle;Max_cycle;Signal;HPM_P1;HPM_P2
2022/12/15 00:40:21;;;;;;;10.30;7.53;;;;;;;5.57;48.16;100869.22;31131797;28;20065;-74
2022/12/15 01:26:06;;;;;;;12.50;7.33;;;;;;;5.89;46.30;100819.22;31086697;28;20050;-74
2022/12/15 01:41:11;;;;;;;8.00;3.93;;;;;;;5.93;46.93;100808.44;31068189;28;20062;-74
2022/12/15 01:56:14;;;;;;;12.23;6.60;;;;;;;5.73;46.23;100816.69;31077803;28;20156;-73
2022/12/15 02:11:25;;;;;;;7.00;4.37;;;;;;;5.67;45.94;100795.84;31079301;28;20534;-74
2022/12/15 02:27:02;;;;;;;6.80;4.83;;;;;;;5.97;46.44;100793.09;31068257;28;20077;-75
2022/12/15 02:42:04;;;;;;;6.10;3.80;;;;;;;5.92;45.63;100766.47;31088109;28;20143;-74
2022/12/15 02:57:29;;;;;;;8.93;3.47;;;;;;;6.06;46.42;100735.06;31072499;28;20484;-74
2022/12/15 03:12:30;;;;;;;10.57;5.63;;;;;;;5.73;46.71;100711.63;31073105;28;20085;-74
2022/12/15 03:27:34;;;;;;;11.50;5.80;;;;;;;5.91;45.97;100714.50;31076706;28;20046;-74
2022/12/15 03:42:48;;;;;;;10.40;5.97;;;;;;;5.72;45.18;100728.94;31193737;28;20089;-76
2022/12/15 03:57:51;;;;;;;11.60;6.10;;;;;;;6.00;45.30;100706.13;31213697;28;20526;-73
2022/12/15 04:13:14;;;;;;;10.67;6.37;;;;;;;6.07;45.40;100690.78;31225453;28;20057;-73
2022/12/15 05:45:00;;;;;;;11.77;6.03;;;;;;;6.06;46.56;100693.84;31198947;28;20460;-73
2022/12/15 06:00:03;;;;;;;10.00;5.17;;;;;;;6.11;47.27;100691.59;31227557;28;20069;-74
2022/12/15 06:15:06;;;;;;;12.27;5.30;;;;;;;6.04;47.59;100701.53;31257030;28;20054;-75
2022/12/15 06:30:08;;;;;;;9.40;5.57;;;;;;;6.32;47.37;100699.06;31233401;28;20692;-72
2022/12/15 06:45:10;;;;;;;12.87;6.70;;;;;;;6.18;47.64;100706.25;31224380;28;20415;-74
2022/12/15 07:00:14;;;;;;;14.10;6.50;;;;;;;6.38;47.07;100657.09;31207659;28;20069;-74
2022/12/15 07:15:16;;;;;;;10.87;6.40;;;;;;;6.28;47.35;100630.84;31223866;28;20053;-74
2022/12/15 07:30:18;;;;;;;10.80;4.87;;;;;;;6.50;47.39;100616.34;31225724;28;20057;-74
2022/12/15 07:45:20;;;;;;;11.50;6.20;;;;;;;6.58;47.39;100578.63;31204723;28;20050;-74
2022/12/15 08:00:22;;;;;;;9.67;5.37;;;;;;;6.64;48.26;100566.28;31223028;28;20057;-72
2022/12/15 08:15:24;;;;;;;10.63;5.07;;;;;;;6.72;48.07;100584.06;31172131;28;20474;-76
2022/12/15 08:30:26;;;;;;;10.40;6.80;;;;;;;6.76;47.94;100514.69;31211561;28;20124;-75
2022/12/15 08:45:28;;;;;;;13.17;5.40;;;;;;;7.25;48.14;100464.59;31201939;28;20046;-74
2022/12/15 09:00:30;;;;;;;10.47;5.50;;;;;;;7.46;47.88;100448.38;31224315;28;20054;-73
2022/12/15 09:15:32;;;;;;;18.03;6.63;;;;;;;7.48;46.92;100419.81;31297416;28;20157;-82
2022/12/15 09:31:05;;;;;;;12.77;6.13;;;;;;;8.02;46.27;100411.56;31227675;28;20061;-73
2022/12/15 10:02:34;;;;;;;11.53;5.87;;;;;;;8.19;46.23;100306.00;31246478;28;20499;-82
2022/12/15 10:17:55;;;;;;;11.87;6.20;;;;;;;8.25;45.29;100289.34;31216663;28;20091;-81
2022/12/15 10:33:19;;;;;;;8.00;5.87;;;;;;;8.25;45.24;100281.25;31206479;28;20072;-85
2022/12/15 10:48:22;;;;;;;8.27;5.50;;;;;;;8.32;45.92;100270.34;31209820;28;20053;-86
2022/12/15 11:03:27;;;;;;;16.70;8.00;;;;;;;8.31;45.50;100285.03;31288797;23;20045;-85
2022/12/15 11:18:36;;;;;;;13.18;5.90;;;;;;;8.80;46.04;100257.56;31267007;28;20049;-89
2022/12/15 11:33:39;;;;;;;14.17;7.43;;;;;;;8.36;46.04;100201.56;31248948;28;20473;-81
2022/12/15 11:48:53;;;;;;;16.40;7.43;;;;;;;9.25;46.12;100254.78;31300944;28;20046;-82
2022/12/15 12:04:16;;;;;;;12.27;5.70;;;;;;;9.03;46.10;100253.47;31260388;28;20147;-79
2022/12/15 12:19:41;;;;;;;16.90;7.57;;;;;;;9.45;46.03;100263.03;31192173;28;20109;-89
2022/12/15 12:50:12;;;;;;;16.47;7.37;;;;;;;9.39;47.23;100237.59;19558584;23;20035;-83
2022/12/15 13:05:30;;;;;;;14.90;7.20;;;;;;;9.53;47.97;100221.91;31010272;23;20035;-84
2022/12/15 13:20:38;;;;;;;12.93;7.90;;;;;;;9.32;49.07;100205.94;30840447;28;20496;-74
2022/12/15 13:35:42;;;;;;;17.93;8.87;;;;;;;9.10;49.32;100177.56;30784996;28;20563;-84
2022/12/15 13:50:50;;;;;;;21.10;9.13;;;;;;;9.75;48.64;100208.81;30766565;28;20055;-73
2022/12/15 14:05:56;;;;;;;18.40;8.70;;;;;;;10.10;48.20;100242.78;30717363;28;20074;-72
2022/12/15 14:20:59;;;;;;;;;;;;;;;10.52;47.45;100238.63;30734233;28;20051;-73
2022/12/15 14:36:06;;;;;;;19.43;7.17;;;;;;;10.17;49.34;100239.94;30737948;28;19965;-74
2022/12/15 14:51:11;;;;;;;16.57;7.77;;;;;;;10.19;49.18;100242.25;30718834;28;20115;-72
2022/12/15 15:06:17;;;;;;;9.70;5.47;;;;;;;10.33;49.24;100247.47;30728657;28;20468;-74
2022/12/15 15:21:25;;;;;;;13.27;7.30;;;;;;;10.40;50.05;100260.16;30767814;28;20083;-92
2022/12/15 15:36:36;;;;;;;16.50;8.90;;;;;;;10.22;50.15;100265.88;30793104;28;20502;-90
2022/12/15 16:10:12;;;;;;;18.73;9.03;;;;;;;10.26;51.37;100261.16;32176970;27;20161;-88
2022/12/15 16:25:29;;;;;;;21.73;9.33;;;;;;;9.98;51.92;100258.84;32050566;27;20055;-91
2022/12/15 16:40:52;;;;;;;22.70;10.17;;;;;;;9.91;52.54;100241.53;32036291;27;20050;-86
2022/12/15 16:56:03;;;;;;;24.10;10.33;;;;;;;10.03;52.32;100232.03;32031245;27;20051;-86
2022/12/15 17:11:10;;;;;;;22.83;9.80;;;;;;;9.61;53.70;100217.16;31867965;27;20043;-84
2022/12/15 17:26:23;;;;;;;26.00;10.73;;;;;;;9.59;53.76;100219.50;31886734;27;20035;-86
2022/12/15 17:41:30;;;;;;;25.07;10.43;;;;;;;9.40;54.78;100231.00;31764645;22;20408;-81
2022/12/15 17:56:52;;;;;;;20.50;11.37;;;;;;;9.33;54.58;100231.06;31629212;28;20052;-87
2022/12/15 18:11:54;;;;;;;17.50;8.77;;;;;;;9.01;55.46;100228.75;31637672;28;20095;-86
2022/12/15 18:26:56;;;;;;;21.73;10.60;;;;;;;9.21;55.42;100243.97;31601440;28;20508;-85
2022/12/15 18:41:58;;;;;;;22.90;10.67;;;;;;;9.22;55.99;100245.50;31589737;28;20060;-84
2022/12/15 18:57:00;;;;;;;24.37;9.67;;;;;;;9.51;55.72;100239.75;31570062;28;20215;-82
2022/12/15 19:12:17;;;;;;;29.57;11.00;;;;;;;9.29;56.46;100223.00;31577650;28;20097;-82
2022/12/15 19:27:25;;;;;;;22.77;9.80;;;;;;;9.36;56.01;100227.56;31562825;28;20047;-81
2022/12/15 19:42:29;;;;;;;17.67;9.27;;;;;;;9.43;56.37;100222.06;31526487;28;20427;-81
2022/12/15 19:57:31;;;;;;;31.30;10.50;;;;;;;9.05;56.68;100214.00;31568753;28;20052;-80
2022/12/15 20:12:33;;;;;;;24.30;9.50;;;;;;;9.27;56.77;100213.72;31577279;28;20052;-80
2022/12/15 20:27:35;;;;;;;22.10;9.20;;;;;;;9.64;55.75;100223.72;31531680;28;20047;-78
2022/12/15 20:42:37;;;;;;;23.70;9.13;;;;;;;9.92;54.88;100239.53;31581304;28;20100;-79
2022/12/15 20:57:39;;;;;;;21.53;10.47;;;;;;;10.19;54.91;100234.13;31568523;28;20554;-77
2022/12/15 21:12:43;;;;;;;30.20;10.23;;;;;;;10.49;54.29;100233.25;31590986;28;20106;-75
2022/12/15 21:27:46;;;;;;;29.30;9.63;;;;;;;10.39;54.80;100210.56;31602293;28;20568;-76
2022/12/15 21:42:48;;;;;;;20.97;7.83;;;;;;;10.51;54.02;100212.66;31553299;28;20079;-75
2022/12/15 21:57:51;;;;;;;25.83;8.83;;;;;;;10.61;54.56;100210.19;31569717;28;20314;-76
2022/12/15 22:12:53;;;;;;;22.10;9.30;;;;;;;10.53;54.20;100232.00;31563640;28;20078;-77
2022/12/15 22:28:00;;;;;;;17.33;8.17;;;;;;;10.48;54.42;100262.34;31555676;28;20421;-76
2022/12/15 22:43:02;;;;;;;24.37;8.47;;;;;;;10.94;54.37;100304.22;31576465;28;20090;-76
2022/12/15 22:58:09;;;;;;;29.80;12.80;;;;;;;11.24;53.79;100312.19;31564173;28;20075;-76
2022/12/15 23:13:11;;;;;;;37.47;13.33;;;;;;;10.87;53.85;100364.09;31580203;28;20279;-76
2022/12/15 23:28:14;;;;;;;30.30;12.07;;;;;;;11.14;52.83;100356.63;31575322;28;20492;-76
2022/12/15 23:43:16;;;;;;;33.60;12.83;;;;;;;11.14;53.19;100416.41;31586640;28;20060;-76
2022/12/15 23:58:18;;;;;;;22.13;10.30;;;;;;;11.00;53.05;100411.22;31547961;28;20082;-76
